createdAt,value
2022-11-02T00:01:42.724Z,98175.91
2022-11-02T00:04:11.580Z,98173.56
2022-11-02T00:06:41.285Z,98174.00
2022-11-02T00:09:09.638Z,98173.44
2022-11-02T00:11:39.278Z,98176.41
2022-11-02T00:14:07.674Z,98171.38
2022-11-02T00:16:38.612Z,98176.00
2022-11-02T00:19:07.760Z,98178.81
2022-11-02T00:21:36.832Z,98179.97
2022-11-02T00:24:07.151Z,98180.94
2022-11-02T00:26:38.196Z,98181.25
2022-11-02T00:29:07.221Z,98185.03
2022-11-02T00:31:35.551Z,98187.97
2022-11-02T00:34:03.761Z,98201.56
2022-11-02T00:36:32.254Z,98205.22
2022-11-02T00:39:00.488Z,98209.03
2022-11-02T00:41:28.746Z,98213.63
2022-11-02T00:43:58.333Z,98216.72
2022-11-02T00:46:26.581Z,98210.84
2022-11-02T00:48:54.852Z,98216.59
2022-11-02T00:51:23.128Z,98215.06
2022-11-02T00:53:51.420Z,98207.38
2022-11-02T00:56:19.688Z,98209.50
2022-11-02T00:58:47.886Z,98213.41
2022-11-02T01:01:17.656Z,98205.72
2022-11-02T01:03:46.004Z,98204.19
2022-11-02T01:06:16.782Z,98201.97
2022-11-02T01:08:45.059Z,98205.78
2022-11-02T01:11:16.098Z,98212.31
2022-11-02T01:13:44.547Z,98217.78
2022-11-02T01:16:14.233Z,98217.94
2022-11-02T01:18:44.463Z,98210.94
2022-11-02T01:21:12.788Z,98217.41
2022-11-02T01:23:41.099Z,98208.72
2022-11-02T01:26:11.914Z,98207.19
2022-11-02T01:28:40.946Z,98215.31
2022-11-02T01:31:11.043Z,98211.94
2022-11-02T01:33:46.184Z,98205.25
2022-11-02T01:36:16.497Z,98207.19
2022-11-02T01:38:44.754Z,98204.81
2022-11-02T01:41:13.899Z,98203.44
2022-11-02T01:43:44.153Z,98206.38
2022-11-02T01:46:22.998Z,98194.38
2022-11-02T01:48:56.647Z,98199.97
2022-11-02T01:51:30.292Z,98201.22
2022-11-02T01:54:04.479Z,98200.53
2022-11-02T01:56:34.558Z,98203.31
2022-11-02T01:59:05.863Z,98199.97
2022-11-02T02:01:34.462Z,98203.63
2022-11-02T02:04:04.377Z,98201.09
2022-11-02T02:06:33.249Z,98203.03
2022-11-02T02:09:06.285Z,98199.84
2022-11-02T02:11:37.012Z,98205.31
2022-11-02T02:14:09.012Z,98207.25
2022-11-02T02:17:03.947Z,98203.88
2022-11-02T02:19:47.652Z,98209.47
2022-11-02T02:23:01.595Z,98210.03
2022-11-02T02:26:21.004Z,98221.06
2022-11-02T02:28:55.408Z,98211.69
2022-11-02T02:31:33.745Z,98216.75
2022-11-02T02:34:10.904Z,98222.03
2022-11-02T02:39:25.573Z,98222.28
2022-11-02T02:42:00.505Z,98219.78
2022-11-02T02:44:35.249Z,98224.22
2022-11-02T02:47:07.412Z,98223.41
2022-11-02T02:49:49.571Z,98216.41
2022-11-02T02:52:21.576Z,98207.78
2022-11-02T02:54:52.194Z,98213.06
2022-11-02T02:57:23.942Z,98213.06
2022-11-02T02:59:55.096Z,98211.25
2022-11-02T03:02:27.065Z,98214.88
2022-11-02T03:04:55.483Z,98214.88
2022-11-02T03:07:31.135Z,98212.38
2022-11-02T03:10:13.173Z,98223.97
2022-11-02T03:12:51.686Z,98230.22
2022-11-02T03:15:27.011Z,98228.56
2022-11-02T03:18:06.661Z,98230.38
2022-11-02T03:20:44.296Z,98219.88
2022-11-02T03:23:20.150Z,98230.66
2022-11-02T03:25:55.492Z,98227.16
2022-11-02T03:28:31.626Z,98227.16
2022-11-02T03:31:09.188Z,98235.13
2022-11-02T03:33:44.059Z,98238.75
2022-11-02T03:36:16.562Z,98237.94
2022-11-02T03:38:48.812Z,98240.72
2022-11-02T03:41:18.209Z,98246.16
2022-11-02T03:43:50.248Z,98247.97
2022-11-02T03:46:21.198Z,98250.75
2022-11-02T03:48:51.584Z,98258.03
2022-11-02T03:51:22.623Z,98259.25
2022-11-02T03:53:58.014Z,98262.03
2022-11-02T03:56:32.557Z,98274.63
2022-11-02T03:59:00.868Z,98279.22
2022-11-02T04:01:32.002Z,98278.50
2022-11-02T04:04:00.387Z,98288.28
2022-11-02T04:06:28.856Z,98281.44
2022-11-02T04:08:57.100Z,98283.25
2022-11-02T04:11:42.962Z,98283.38
2022-11-02T04:14:28.961Z,98279.16
2022-11-02T04:17:12.421Z,98274.97
2022-11-02T04:19:44.135Z,98283.94
2022-11-02T04:22:29.175Z,98280.44
2022-11-02T04:25:14.616Z,98281.53
2022-11-02T04:27:42.989Z,98289.63
2022-11-02T04:30:12.824Z,98289.75
2022-11-02T04:33:01.845Z,98289.75
2022-11-02T04:35:31.075Z,98295.34
2022-11-02T04:38:17.701Z,98290.16
2022-11-02T04:40:46.353Z,98298.25
2022-11-02T04:43:14.630Z,98285.94
2022-11-02T04:45:42.950Z,98286.06
2022-11-02T04:48:12.573Z,98290.56
2022-11-02T04:50:40.796Z,98290.56
2022-11-02T04:53:09.033Z,98292.38
2022-11-02T04:55:37.352Z,98287.31
2022-11-02T04:58:05.878Z,98286.47
2022-11-02T05:00:34.447Z,98283.13
2022-11-02T05:03:03.918Z,98283.41
2022-11-02T05:05:35.397Z,98293.03
2022-11-02T05:08:03.936Z,98288.00
2022-11-02T05:10:32.356Z,98291.88
2022-11-02T05:13:01.464Z,98292.72
2022-11-02T05:15:29.972Z,98298.16
2022-11-02T05:17:58.303Z,98302.03
2022-11-02T05:20:26.634Z,98303.00
2022-11-02T05:22:56.292Z,98296.03
2022-11-02T05:25:24.646Z,98288.22
2022-11-02T05:27:52.940Z,98286.66
2022-11-02T05:30:21.170Z,98286.91
2022-11-02T05:32:49.423Z,98268.63
2022-11-02T05:35:17.851Z,98266.94
2022-11-02T05:37:46.101Z,98266.94
2022-11-02T05:40:15.869Z,98276.69
2022-11-02T05:42:44.117Z,98268.88
2022-11-02T05:45:12.598Z,98274.44
2022-11-02T05:47:40.825Z,98281.72
2022-11-02T05:50:11.017Z,98292.31
2022-11-02T05:52:39.312Z,98286.41
2022-11-02T05:55:08.942Z,98295.47
2022-11-02T05:57:38.656Z,98294.75
2022-11-02T06:00:08.704Z,98295.88
2022-11-02T06:02:37.148Z,98300.31
2022-11-02T06:05:06.357Z,98312.03
2022-11-02T06:07:34.696Z,98324.53
2022-11-02T06:10:03.162Z,98326.38
2022-11-02T06:12:31.484Z,98324.53
2022-11-02T06:15:01.149Z,98327.19
2022-11-02T06:17:29.400Z,98323.84
2022-11-02T06:19:57.659Z,98338.06
2022-11-02T06:22:25.919Z,98342.53
2022-11-02T06:24:54.273Z,98326.63
2022-11-02T06:27:22.489Z,98333.59
2022-11-02T06:29:50.733Z,98342.53
2022-11-02T06:32:20.942Z,98342.53
2022-11-02T06:34:49.192Z,98357.56
2022-11-02T06:37:17.433Z,98357.44
2022-11-02T06:39:45.712Z,98365.16
2022-11-02T06:42:13.960Z,98358.75
2022-11-02T06:44:42.309Z,98359.47
2022-11-02T06:47:10.657Z,98361.84
2022-11-02T06:49:40.287Z,98369.56
2022-11-02T06:52:08.577Z,98367.47
2022-11-02T06:54:36.925Z,98373.50
2022-11-02T06:57:05.360Z,98373.22
2022-11-02T06:59:33.683Z,98401.16
2022-11-02T07:02:02.180Z,98392.00
2022-11-02T07:04:30.620Z,98390.88
2022-11-02T07:07:00.307Z,98397.03
2022-11-02T07:09:28.927Z,98403.03
2022-11-02T07:11:57.133Z,98410.72
2022-11-02T07:14:25.439Z,98407.00
2022-11-02T07:16:53.687Z,98407.69
2022-11-02T07:19:21.937Z,98411.78
2022-11-02T07:21:50.221Z,98413.19
2022-11-02T07:24:19.881Z,98420.78
2022-11-02T07:26:50.288Z,98415.22
2022-11-02T07:29:19.210Z,98410.59
2022-11-02T07:31:47.970Z,98420.13
2022-11-02T07:34:17.336Z,98425.03
2022-11-02T07:36:46.127Z,98424.66
2022-11-02T07:39:14.461Z,98427.72
2022-11-02T07:41:47.925Z,98430.84
2022-11-02T07:44:19.081Z,98437.28
2022-11-02T07:46:47.339Z,98434.00
2022-11-02T07:49:21.125Z,98429.13
2022-11-02T07:51:49.868Z,98436.44
2022-11-02T07:54:18.195Z,98439.53
2022-11-02T07:56:47.841Z,98441.78
2022-11-02T07:59:16.185Z,98448.97
2022-11-02T08:01:44.490Z,98452.09
2022-11-02T08:04:12.831Z,98452.53
2022-11-02T08:06:41.104Z,98456.47
2022-11-02T08:09:09.410Z,98436.75
2022-11-02T08:11:37.785Z,98439.72
2022-11-02T08:14:07.400Z,98447.41
2022-11-02T08:16:35.729Z,98442.78
2022-11-02T08:19:04.073Z,98441.56
2022-11-02T08:21:32.409Z,98439.31
2022-11-02T08:24:00.656Z,98446.75
2022-11-02T08:26:28.975Z,98438.22
2022-11-02T08:28:57.284Z,98443.44
2022-11-02T08:31:26.862Z,98436.31
2022-11-02T08:33:55.343Z,98430.75
2022-11-02T08:36:23.572Z,98420.66
2022-11-02T08:38:51.883Z,98418.28
2022-11-02T08:41:20.084Z,98400.91
2022-11-02T08:43:48.457Z,98413.66
2022-11-02T08:46:17.283Z,98415.56
2022-11-02T08:48:47.315Z,98409.63
2022-11-02T08:51:15.741Z,98415.88
2022-11-02T08:53:50.322Z,98408.09
2022-11-02T08:56:20.083Z,98408.31
2022-11-02T08:58:48.469Z,98415.97
2022-11-02T09:01:16.928Z,98416.44
2022-11-02T09:03:46.739Z,98418.81
2022-11-02T09:06:15.049Z,98421.66
2022-11-02T09:08:43.393Z,98417.16
2022-11-02T09:11:11.728Z,98425.47
2022-11-02T09:13:40.376Z,98420.78
2022-11-02T09:16:09.428Z,98421.13
2022-11-02T09:18:39.067Z,98415.72
2022-11-02T09:21:09.164Z,98411.84
2022-11-02T09:23:37.469Z,98417.97
2022-11-02T09:26:05.815Z,98417.56
2022-11-02T09:28:34.468Z,98415.59
2022-11-02T09:31:04.876Z,98415.47
2022-11-02T09:33:36.239Z,98409.13
2022-11-02T09:36:08.535Z,98407.34
2022-11-02T09:38:36.838Z,98412.03
2022-11-02T09:41:16.514Z,98406.84
2022-11-02T09:43:59.173Z,98399.94
2022-11-02T09:46:31.642Z,98395.25
2022-11-02T09:49:05.008Z,98391.81
2022-11-02T09:51:38.232Z,98400.13
2022-11-02T09:54:18.364Z,98392.28
2022-11-02T09:56:48.147Z,98403.91
2022-11-02T09:59:18.887Z,98413.56
2022-11-02T10:02:04.148Z,98410.56
2022-11-02T10:05:06.065Z,98405.34
2022-11-02T10:08:10.468Z,98408.22
2022-11-02T10:10:42.367Z,98410.38
2022-11-02T10:13:25.960Z,98409.84
2022-11-02T10:15:57.636Z,98406.97
2022-11-02T10:18:29.011Z,98407.47
2022-11-02T10:21:01.281Z,98401.25
2022-11-02T10:23:36.796Z,98403.44
2022-11-02T10:26:05.530Z,98396.72
2022-11-02T10:28:37.981Z,98391.34
2022-11-02T10:31:22.129Z,98393.00
2022-11-02T10:33:52.901Z,98392.19
2022-11-02T10:36:48.097Z,98394.59
2022-11-02T10:39:28.149Z,98401.03
2022-11-02T10:42:18.387Z,98401.22
2022-11-02T10:45:08.303Z,98399.75
2022-11-02T10:47:43.029Z,98397.06
2022-11-02T10:50:49.100Z,98389.59
2022-11-02T10:53:40.102Z,98393.38
2022-11-02T10:56:17.716Z,98387.63
2022-11-02T10:58:52.651Z,98391.44
2022-11-02T11:01:20.980Z,98398.56
2022-11-02T11:03:58.913Z,98391.56
2022-11-02T11:06:31.392Z,98388.63
2022-11-02T11:09:07.304Z,98390.16
2022-11-02T11:11:38.887Z,98376.75
2022-11-02T11:20:09.718Z,98376.63
2022-11-02T11:22:40.084Z,98383.66
2022-11-02T11:25:27.438Z,98392.59
2022-11-02T11:27:59.514Z,98383.84
2022-11-02T11:30:58.267Z,98375.97
2022-11-02T11:33:23.179Z,98375.69
2022-11-02T11:35:52.999Z,98372.59
2022-11-02T11:38:24.028Z,98380.00
2022-11-02T11:40:55.027Z,98378.94
2022-11-02T11:43:28.159Z,98389.44
2022-11-02T11:46:05.195Z,98391.84
2022-11-02T11:48:39.677Z,98391.09
2022-11-02T11:51:27.519Z,98389.75
2022-11-02T11:54:20.803Z,98381.81
2022-11-02T11:56:50.953Z,98377.19
2022-11-02T11:59:28.236Z,98383.69
2022-11-02T12:02:02.461Z,98384.91
2022-11-02T12:04:34.710Z,98381.75
2022-11-02T12:07:24.115Z,98383.16
2022-11-02T12:10:04.605Z,98379.66
2022-11-02T12:12:50.976Z,98369.22
2022-11-02T12:15:36.585Z,98372.00
2022-11-02T12:18:24.219Z,98377.69
2022-11-02T12:21:07.305Z,98374.59
2022-11-02T12:24:01.915Z,98376.91
2022-11-02T12:26:46.927Z,98377.72
2022-11-02T12:29:41.922Z,98379.47
2022-11-02T12:32:30.616Z,98367.31
2022-11-02T12:35:32.013Z,98374.06
2022-11-02T12:38:16.957Z,98366.06
2022-11-02T12:40:58.428Z,98356.53
2022-11-02T12:43:40.492Z,98359.38
2022-11-02T12:46:37.189Z,98358.72
2022-11-02T12:49:32.237Z,98345.47
2022-11-02T12:52:18.429Z,98350.84
2022-11-02T12:54:49.872Z,98358.09
2022-11-02T12:57:21.724Z,98363.28
2022-11-02T12:59:55.489Z,98363.28
2022-11-02T13:02:28.735Z,98352.06
2022-11-02T13:05:04.014Z,98354.75
2022-11-02T13:07:37.985Z,98350.41
2022-11-02T13:10:15.286Z,98347.03
2022-11-02T13:12:45.852Z,98343.88
2022-11-02T13:15:18.818Z,98354.78
2022-11-02T13:17:51.501Z,98344.44
2022-11-02T13:20:25.673Z,98351.84
2022-11-02T13:22:59.760Z,98352.56
2022-11-02T13:25:34.046Z,98358.47
2022-11-02T13:28:07.417Z,98354.31
2022-11-02T13:30:36.616Z,98351.13
2022-11-02T13:33:11.929Z,98350.47
2022-11-02T13:35:43.044Z,98355.19
2022-11-02T13:38:27.266Z,98354.53
2022-11-02T13:41:15.973Z,98351.84
2022-11-02T13:44:22.065Z,98353.06
2022-11-02T13:47:16.157Z,98355.91
2022-11-02T13:49:46.367Z,98352.56
2022-11-02T13:52:19.027Z,98348.84
2022-11-02T13:54:52.153Z,98345.34
2022-11-02T13:57:33.537Z,98352.56
2022-11-02T14:00:05.433Z,98355.06
2022-11-02T14:02:38.436Z,98354.41
2022-11-02T14:05:07.926Z,98348.22
2022-11-02T14:07:41.626Z,98350.41
2022-11-02T14:10:17.874Z,98349.75
2022-11-02T14:12:48.332Z,98358.31
2022-11-02T14:15:55.730Z,98356.38
2022-11-02T14:18:32.026Z,98355.88
2022-11-02T14:21:39.461Z,98351.88
2022-11-02T14:25:06.692Z,98364.13
2022-11-02T14:27:35.565Z,98361.63
2022-11-02T14:30:04.092Z,98357.44
2022-11-02T14:32:54.316Z,98359.63
2022-11-02T14:35:40.176Z,98363.03
2022-11-02T14:38:37.349Z,98354.16
2022-11-02T14:41:26.804Z,98360.69
2022-11-02T14:44:30.199Z,98360.22
2022-11-02T14:47:04.548Z,98362.41
2022-11-02T14:49:35.890Z,98352.03
2022-11-02T14:52:08.743Z,98346.00
2022-11-02T14:54:52.283Z,98346.38
2022-11-02T14:57:26.581Z,98343.03
2022-11-02T14:59:59.029Z,98341.53
2022-11-02T15:02:32.692Z,98340.19
2022-11-02T15:05:04.349Z,98339.06
2022-11-02T15:07:37.623Z,98335.06
2022-11-02T15:10:44.303Z,98333.72
2022-11-02T15:13:42.570Z,98326.53
2022-11-02T15:16:25.619Z,98329.09
2022-11-02T15:18:55.949Z,98333.09
2022-11-02T15:21:29.138Z,98330.91
2022-11-02T15:24:11.052Z,98335.13
2022-11-02T15:26:49.173Z,98333.13
2022-11-02T15:29:38.214Z,98336.69
2022-11-02T15:35:04.278Z,98345.91
2022-11-02T15:37:50.496Z,98348.44
2022-11-02T15:40:28.687Z,98333.41
2022-11-02T15:43:08.701Z,98347.47
2022-11-02T15:45:57.742Z,98342.94
2022-11-02T15:48:42.421Z,98335.25
2022-11-02T15:51:21.732Z,98333.25
2022-11-02T15:54:20.046Z,98338.56
2022-11-02T15:57:01.266Z,98342.72
2022-11-02T16:00:05.145Z,98343.75
2022-11-02T16:02:36.688Z,98351.44
2022-11-02T16:05:07.147Z,98347.75
2022-11-02T16:07:57.438Z,98360.09
2022-11-02T16:10:29.377Z,98355.72
2022-11-02T16:13:16.967Z,98353.38
2022-11-02T16:15:46.487Z,98350.50
2022-11-02T16:18:25.668Z,98349.81
2022-11-02T16:20:57.024Z,98355.97
2022-11-02T16:23:30.376Z,98361.13
2022-11-02T16:26:01.308Z,98354.88
2022-11-02T16:28:32.633Z,98354.84
2022-11-02T16:31:13.503Z,98355.81
2022-11-02T16:33:46.595Z,98358.75
2022-11-02T16:36:19.403Z,98362.22
2022-11-02T16:38:58.946Z,98366.84
2022-11-02T16:41:29.558Z,98366.78
2022-11-02T16:43:59.908Z,98367.56
2022-11-02T16:46:41.086Z,98361.03
2022-11-02T16:49:16.738Z,98370.81
2022-11-02T16:51:53.849Z,98368.75
2022-11-02T16:54:40.480Z,98369.38
2022-11-02T16:57:16.209Z,98371.63
2022-11-02T16:59:52.528Z,98369.44
2022-11-02T17:02:28.451Z,98363.69
2022-11-02T17:05:02.467Z,98365.00
2022-11-02T17:07:37.861Z,98352.44
2022-11-02T17:10:09.681Z,98367.09
2022-11-02T17:12:43.696Z,98365.03
2022-11-02T17:15:19.070Z,98367.31
2022-11-02T17:17:48.277Z,98361.47
2022-11-02T17:20:24.363Z,98370.88
2022-11-02T17:22:59.061Z,98377.38
2022-11-02T17:25:31.138Z,98376.00
2022-11-02T17:28:01.277Z,98370.97
2022-11-02T17:30:45.724Z,98379.56
2022-11-02T17:33:29.543Z,98376.50
2022-11-02T17:36:05.478Z,98379.47
2022-11-02T17:38:34.177Z,98386.94
2022-11-02T17:41:24.408Z,98387.41
2022-11-02T17:43:52.012Z,98396.81
2022-11-02T17:46:20.410Z,98390.09
2022-11-02T17:48:48.834Z,98384.22
2022-11-02T17:51:24.953Z,98390.84
2022-11-02T17:53:53.545Z,98386.94
2022-11-02T17:56:23.289Z,98391.84
2022-11-02T17:58:51.711Z,98384.16
2022-11-02T18:01:20.340Z,98388.09
2022-11-02T18:03:48.670Z,98381.41
2022-11-02T18:06:16.971Z,98373.84
2022-11-02T18:09:02.428Z,98382.13
2022-11-02T18:11:32.048Z,98380.06
2022-11-02T18:14:00.458Z,98384.97
2022-11-02T18:16:28.930Z,98372.94
2022-11-02T18:18:57.272Z,98373.53
2022-11-02T18:21:25.609Z,98370.44
2022-11-02T18:23:53.900Z,98365.41
2022-11-02T18:26:22.235Z,98359.56
2022-11-02T18:28:51.901Z,98359.16
2022-11-02T18:31:20.152Z,98360.44
2022-11-02T18:33:48.409Z,98364.19
2022-11-02T18:36:16.788Z,98354.84
2022-11-02T18:38:45.092Z,98349.78
2022-11-02T18:41:32.020Z,98349.22
2022-11-02T18:44:08.875Z,98348.00
2022-11-02T18:46:40.168Z,98358.06
2022-11-02T18:49:08.498Z,98357.69
2022-11-02T18:51:36.870Z,98354.47
2022-11-02T18:54:07.195Z,98354.88
2022-11-02T18:56:35.686Z,98345.34
2022-11-02T18:59:05.706Z,98339.59
2022-11-02T19:01:34.492Z,98339.06
2022-11-02T19:04:03.367Z,98339.50
2022-11-02T19:06:51.800Z,98333.63
2022-11-02T19:09:23.517Z,98323.69
2022-11-02T19:11:56.821Z,98320.59
2022-11-02T19:14:26.860Z,98318.22
2022-11-02T19:16:55.230Z,98316.84
2022-11-02T19:19:23.521Z,98324.25
2022-11-02T19:21:51.955Z,98326.38
2022-11-02T19:24:21.292Z,98316.88
2022-11-02T19:26:49.710Z,98317.97
2022-11-02T19:29:18.327Z,98306.94
2022-11-02T19:31:48.206Z,98309.03
2022-11-02T19:34:16.790Z,98308.44
2022-11-02T19:36:45.563Z,98306.22
2022-11-02T19:39:13.896Z,98303.00
2022-11-02T19:41:42.237Z,98296.28
2022-11-02T19:44:10.884Z,98305.38
2022-11-02T19:46:39.237Z,98304.66
2022-11-02T19:49:09.020Z,98315.69
2022-11-02T19:51:37.299Z,98306.47
2022-11-02T19:54:06.393Z,98313.91
2022-11-02T19:56:36.840Z,98311.66
2022-11-02T19:59:06.568Z,98301.31
2022-11-02T20:01:37.450Z,98310.50
2022-11-02T20:04:06.312Z,98306.47
2022-11-02T20:06:38.088Z,98303.22
2022-11-02T20:09:09.064Z,98296.38
2022-11-02T20:11:39.747Z,98297.75
2022-11-02T20:14:08.202Z,98302.47
2022-11-02T20:16:36.495Z,98295.78
2022-11-02T20:19:05.093Z,98303.88
2022-11-02T20:21:39.899Z,98313.19
2022-11-02T20:24:11.896Z,98306.34
2022-11-02T20:26:41.998Z,98305.94
2022-11-02T20:29:13.733Z,98310.38
2022-11-02T20:31:45.567Z,98302.81
2022-11-02T20:34:14.705Z,98304.09
2022-11-02T20:36:44.364Z,98307.00
2022-11-02T20:39:13.396Z,98303.75
2022-11-02T20:41:41.722Z,98311.00
2022-11-02T20:44:09.991Z,98302.50
2022-11-02T20:46:41.541Z,98292.97
2022-11-02T20:49:21.184Z,98288.91
2022-11-02T20:51:52.533Z,98293.78
2022-11-02T20:54:20.935Z,98292.22
2022-11-02T20:56:49.814Z,98288.88
2022-11-02T20:59:18.761Z,98284.81
2022-11-02T21:01:47.419Z,98279.91
2022-11-02T21:04:20.642Z,98286.31
2022-11-02T21:06:51.616Z,98279.59
2022-11-02T21:09:20.359Z,98279.03
2022-11-02T21:12:06.172Z,98277.34
2022-11-02T21:14:34.465Z,98275.91
2022-11-02T21:17:03.596Z,98268.22
2022-11-02T21:19:31.914Z,98271.28
2022-11-02T21:22:01.517Z,98270.59
2022-11-02T21:24:30.196Z,98263.97
2022-11-02T21:26:58.635Z,98258.81
2022-11-02T21:29:27.028Z,98264.38
2022-11-02T21:31:55.303Z,98270.91
2022-11-02T21:34:23.535Z,98272.00
2022-11-02T21:36:51.885Z,98266.00
2022-11-02T21:39:21.505Z,98263.72
2022-11-02T21:41:49.745Z,98269.16
2022-11-02T21:44:17.972Z,98264.22
2022-11-02T21:46:46.240Z,98269.78
2022-11-02T21:49:14.467Z,98264.88
2022-11-02T21:51:42.957Z,98262.34
2022-11-02T21:54:11.436Z,98264.44
2022-11-02T21:56:41.146Z,98257.56
2022-11-02T21:59:09.969Z,98264.81
2022-11-02T22:01:49.187Z,98263.97
2022-11-02T22:04:25.343Z,98261.69
2022-11-02T22:06:54.634Z,98260.03
2022-11-02T22:09:23.521Z,98264.59
2022-11-02T22:12:15.154Z,98267.38
2022-11-02T22:14:44.614Z,98257.03
2022-11-02T22:17:35.431Z,98252.72
2022-11-02T22:20:01.907Z,98252.84
2022-11-02T22:22:30.201Z,98253.94
2022-11-02T22:24:58.454Z,98255.03
2022-11-02T22:27:28.395Z,98255.28
2022-11-02T22:29:56.680Z,98251.94
2022-11-02T22:32:24.902Z,98244.94
2022-11-02T22:34:53.136Z,98253.03
2022-11-02T22:37:38.690Z,98245.34
2022-11-02T22:40:08.065Z,98243.91
2022-11-02T22:42:41.410Z,98242.25
2022-11-02T22:45:12.015Z,98245.97
2022-11-02T22:47:40.234Z,98241.78
2022-11-02T22:50:09.455Z,98241.03
2022-11-02T22:52:37.704Z,98243.81
2022-11-02T22:55:06.984Z,98242.28
2022-11-02T22:57:35.211Z,98242.53
2022-11-02T23:00:06.936Z,98241.81
2022-11-02T23:02:35.214Z,98234.97
2022-11-02T23:05:03.532Z,98233.28
2022-11-02T23:07:31.769Z,98228.13
2022-11-02T23:10:00.004Z,98231.03
2022-11-02T23:12:27.249Z,98232.94
2022-11-02T23:14:55.492Z,98233.19
2022-11-02T23:17:25.054Z,98229.00
2022-11-02T23:19:52.313Z,98225.88
2022-11-02T23:22:38.227Z,98229.50
2022-11-02T23:25:15.078Z,98225.56
2022-11-02T23:28:03.216Z,98218.94
2022-11-02T23:30:52.063Z,98224.34
2022-11-02T23:33:22.503Z,98214.03
2022-11-02T23:36:08.929Z,98220.28
2022-11-02T23:38:54.696Z,98218.75
2022-11-02T23:41:22.996Z,98210.22
2022-11-02T23:43:51.199Z,98212.00
2022-11-02T23:46:19.609Z,98204.19
2022-11-02T23:48:52.769Z,98206.25
2022-11-02T23:51:39.285Z,98203.63
2022-11-02T23:54:24.745Z,98199.53
2022-11-02T23:56:53.016Z,98193.66
2022-11-02T23:59:21.265Z,98199.31
